Flight Track Log - Related Links

Times and Time Zones

All times are in EDT time to prevent confusion due to time zone crossing. See the EJA101 flight status page for this flight to view local times or setup timezone preferences in your user account.

Time Position Orientation Groundspeed Altitude Reporting Facility
EDT Latitude Longitude Course Direction KTS MPH feet Rate Location/Type
Fri 07:06:24 AM 40.8692 -74.0575 64° Northeast 171 197 800  Level FlightAware ADS-B
Fri 07:06:27 AM 40.8716 -74.0565 17° North 177 204 900 2,571 Climbing FlightAware ADS-B
Fri 07:06:31 AM 40.8743 -74.0548 25° Northeast 182 209 1,100 2,625 Climbing FlightAware ADS-B
Fri 07:06:43 AM 40.8833 -74.0480 30° Northeast 193 222 1,600 1,800 Climbing FlightAware ADS-B
Fri 07:06:51 AM 40.8896 -74.0431 30° Northeast 198 228 1,700 462 Climbing FlightAware ADS-B
Fri 07:06:56 AM 40.8937 -74.0402 28° Northeast 198 228 1,700  Level FlightAware ADS-B
Fri 07:07:00 AM 40.8971 -74.0386 20° North 194 223 1,700  Level FlightAware ADS-B
Fri 07:07:04 AM 40.9006 -74.0379 North 192 221 1,700  Level FlightAware ADS-B
Fri 07:07:10 AM 40.9061 -74.0388 353° North 189 217 1,700 -600 Level FlightAware ADS-B
Fri 07:07:14 AM 40.9094 -74.0405 339° North 188 216 1,600 -667 Descending FlightAware ADS-B
Fri 07:07:19 AM 40.9126 -74.0436 324° Northwest 187 215 1,600  Level FlightAware ADS-B
Fri 07:07:23 AM 40.9146 -74.0464 313° West 186 214 1,600  Level FlightAware ADS-B
Fri 07:07:26 AM 40.9162 -74.0494 305° West 187 215 1,600  Level FlightAware ADS-B
Fri 07:07:30 AM 40.9182 -74.0538 301° West 188 216 1,600 400 Level FlightAware ADS-B
Fri 07:07:41 AM 40.9224 -74.0652 296° West 191 220 1,700 1,304 Climbing FlightAware ADS-B
Fri 07:07:53 AM 40.9270 -74.0781 295° West 195 224 2,100 2,786 Climbing FlightAware ADS-B
Fri 07:08:09 AM 40.9333 -74.0953 296° West 198 228 3,000 3,375 Climbing FlightAware ADS-B
Fri 07:08:25 AM 40.9401 -74.1125 298° West 200 230 3,900 3,000 Climbing FlightAware ADS-B
Fri 07:08:59 AM 40.9561 -74.1499 300° West 200 230 5,500 2,000 Climbing FlightAware ADS-B
Fri 07:09:16 AM 40.9673 -74.1652 314° West 211 243 5,600 480 Climbing FlightAware ADS-B
Fri 07:09:24 AM 40.9738 -74.1699 331° Northwest 222 255 5,700 500 Climbing FlightAware ADS-B
Fri 07:09:28 AM 40.9784 -74.1723 339° North 217 250 5,700  Level FlightAware ADS-B
Fri 07:09:31 AM 40.9820 -74.1736 345° North 231 266 5,700 -200 Level FlightAware ADS-B
Fri 07:09:58 AM 41.0134 -74.1712 North 244 281 5,600 -200 Descending FlightAware ADS-B
Fri 07:10:01 AM 41.0180 -74.1701 10° North 275 316 5,600 300 Level FlightAware ADS-B
Fri 07:10:18 AM 41.0384 -74.1649 11° North 276 318 5,700 261 Climbing FlightAware ADS-B
Fri 07:10:24 AM 41.0459 -74.1616 18° North 277 319 5,700 1,200 Level FlightAware ADS-B
Fri 07:10:28 AM 41.0515 -74.1579 26° Northeast 279 321 5,900 2,400 Climbing FlightAware ADS-B
Fri 07:10:34 AM 41.0579 -74.1521 34° Northeast 282 325 6,100 2,000 Climbing FlightAware ADS-B
Fri 07:10:40 AM 41.0627 -74.1462 43° Northeast 284 327 6,300 2,727 Climbing FlightAware ADS-B
Fri 07:10:45 AM 41.0670 -74.1396 49° Northeast 285 328 6,600 3,500 Climbing FlightAware ADS-B
Fri 07:10:52 AM 41.0725 -74.1284 57° Northeast 287 330 7,000 3,231 Climbing FlightAware ADS-B
Fri 07:11:11 AM 41.0841 -74.0995 62° Northeast 293 337 8,000 3,257 Climbing FlightAware ADS-B
Fri 07:11:27 AM 41.0940 -74.0735 63° Northeast 300 345 8,900 3,333 Climbing FlightAware ADS-B
Fri 07:11:29 AM 41.0953 -74.0703 62° Northeast 299 344 9,000 3,600 Climbing FlightAware ADS-B
Fri 07:11:42 AM 41.1041 -74.0470 63° Northeast 305 351 9,800 3,176 Climbing FlightAware ADS-B
Fri 07:11:46 AM 41.1062 -74.0417 62° Northeast 305 351 9,900 1,297 Climbing FlightAware ADS-B
Fri 07:12:19 AM 41.1290 -73.9818 63° Northeast 355 409 10,600 1,000 Climbing FlightAware ADS-B
Fri 07:12:28 AM 41.1358 -73.9638 63° Northeast 372 428 10,600 938 Level FlightAware ADS-B
Fri 07:12:51 AM 41.1536 -73.9169 63° Northeast 388 447 11,100 1,800 Climbing FlightAware ADS-B
Fri 07:12:58 AM 41.1597 -73.9007 63° Northeast 387 445 11,500 3,455 Climbing FlightAware ADS-B
Fri 07:13:24 AM 41.1805 -73.8459 63° Northeast 386 444 13,000 3,429 Climbing FlightAware ADS-B
Fri 07:13:33 AM 41.1873 -73.8277 64° Northeast 386 444 13,500 3,000 Climbing FlightAware ADS-B
Fri 07:13:54 AM 41.2023 -73.7806 67° East 394 453 14,500 2,727 Climbing FlightAware ADS-B
Fri 07:14:06 AM 41.2100 -73.7534 69° East 396 456 15,000 2,462 Climbing FlightAware ADS-B
Fri 07:14:33 AM 41.2272 -73.6921 70° East 404 465 16,100 2,459 Climbing FlightAware ADS-B
Fri 07:15:07 AM 41.2490 -73.6160 69° East 411 473 17,500 2,684 Climbing FlightAware ADS-B
Fri 07:15:11 AM 41.2526 -73.6017 71° East 414 476 17,800 2,667 Climbing FlightAware ADS-B
Fri 07:15:43 AM 41.2738 -73.5261 70° East 422 486 19,100 2,419 Climbing FlightAware ADS-B
Fri 07:16:13 AM 41.2951 -73.4500 70° East 429 494 20,300 2,557 Climbing FlightAware ADS-B
Fri 07:16:44 AM 41.3166 -73.3731 70° East 433 498 21,700 2,438 Climbing FlightAware ADS-B
Fri 07:17:17 AM 41.3392 -73.2918 70° East 441 507 22,900 2,174 Climbing FlightAware ADS-B
Fri 07:17:53 AM 41.3653 -73.1977 70° East 449 517 24,200 2,160 Climbing FlightAware ADS-B
Fri 07:18:32 AM 41.3993 -73.0999 65° Northeast 451 519 25,600 2,211 Climbing FlightAware ADS-B
Fri 07:19:09 AM 41.4374 -73.0128 60° Northeast 454 522 27,000 1,909 Climbing FlightAware ADS-B
Fri 07:20:00 AM 41.4925 -72.8874 60° Northeast 466 536 28,400 1,484 Climbing FlightAware ADS-B
Fri 07:20:42 AM 41.5380 -72.7840 60° Northeast 479 551 29,300 1,169 Climbing FlightAware ADS-B
Fri 07:21:17 AM 41.5690 -72.7130 60° Northeast 489 563 29,900 1,440 Climbing FlightAware ADS-B
Fri 07:22:22 AM 41.6470 -72.5350 60° Northeast 494 568 31,700 1,657 Climbing FlightAware ADS-B
Fri 07:23:02 AM 41.6960 -72.4390 56° Northeast 496 571 32,800 1,553 Climbing FlightAware ADS-B
Fri 07:23:47 AM 41.7830 -72.3350 42° Northeast 505 581 33,900 1,553 Climbing FlightAware ADS-B
Fri 07:24:27 AM 41.8510 -72.2530 42° Northeast 507 583 35,000 1,768 Climbing FlightAware ADS-B
Fri 07:25:22 AM 41.9380 -72.1490 42° Northeast 502 578 36,700 1,895 Climbing FlightAware ADS-B
Fri 07:26:02 AM 42.0180 -72.0530 42° Northeast 499 574 38,000 1,200 Climbing FlightAware ADS-B
Fri 07:26:47 AM 42.0950 -71.9610 42° Northeast 504 580 38,400 706 Climbing FlightAware ADS-B
Fri 07:27:27 AM 42.1640 -71.8770 42° Northeast 508 585 39,000 918 Climbing FlightAware ADS-B
Fri 07:28:12 AM 42.2450 -71.7790 42° Northeast 510 587 39,700 918 Climbing FlightAware ADS-B
Fri 07:28:52 AM 42.3140 -71.6950 42° Northeast 506 582 40,300 900 Climbing FlightAware ADS-B
Fri 07:29:32 AM 42.3840 -71.6100 42° Northeast 507 583 40,900 494 Climbing FlightAware ADS-B
Fri 07:30:17 AM 42.4610 -71.5160 42° Northeast 519 597 41,000 71 Climbing FlightAware ADS-B
Fri 07:30:57 AM 42.5340 -71.4270 42° Northeast 530 610 41,000  Level FlightAware ADS-B
Fri 07:31:42 AM 42.6170 -71.3240 42° Northeast 530 610 41,000  Level FlightAware ADS-B
Fri 07:32:22 AM 42.6890 -71.2360 42° Northeast 526 605 41,000  Level FlightAware ADS-B
Fri 07:33:02 AM 42.7620 -71.1450 42° Northeast 525 604 41,000  Level FlightAware ADS-B
Fri 07:33:47 AM 42.8410 -71.0460 43° Northeast 527 606 41,000  Level FlightAware ADS-B
Fri 07:34:27 AM 42.9120 -70.9590 42° Northeast 529 609 41,000  Level FlightAware ADS-B
Fri 07:35:12 AM 42.9930 -70.8570 43° Northeast 529 609 41,000  Level FlightAware ADS-B
Fri 07:35:52 AM 43.0660 -70.7650 43° Northeast 527 606 41,000  Level FlightAware ADS-B
Fri 07:36:32 AM 43.1380 -70.6740 43° Northeast 531 611 41,000  Level FlightAware ADS-B
Fri 07:37:17 AM 43.2170 -70.5740 43° Northeast 533 613 41,000  Level FlightAware ADS-B
Fri 07:37:57 AM 43.2890 -70.4830 43° Northeast 532 612 41,000  Level FlightAware ADS-B
Fri 07:38:42 AM 43.3780 -70.3850 39° Northeast 531 611 41,000  Level FlightAware ADS-B
Fri 07:39:22 AM 43.4570 -70.3010 38° Northeast 534 615 41,000  Level FlightAware ADS-B
Fri 07:40:02 AM 43.5340 -70.2190 38° Northeast 534 615 41,000  Level FlightAware ADS-B
Fri 07:40:47 AM 43.6200 -70.1280 37° Northeast 536 617 41,000  Level FlightAware ADS-B
Fri 07:41:27 AM 43.7000 -70.0430 38° Northeast 539 620 41,000  Level FlightAware ADS-B
Fri 07:42:07 AM 43.7770 -69.9610 38° Northeast 536 617 41,000  Level FlightAware ADS-B
Fri 07:42:52 AM 43.8670 -69.8640 38° Northeast 534 615 41,000  Level FlightAware ADS-B
Fri 07:43:32 AM 43.9440 -69.7810 38° Northeast 535 616 41,000  Level FlightAware ADS-B
Fri 07:44:17 AM 44.0310 -69.6880 38° Northeast 539 620 41,000  Level FlightAware ADS-B
Fri 07:44:57 AM 44.1070 -69.6050 38° Northeast 540 621 41,000  Level FlightAware ADS-B
Fri 07:45:37 AM 44.1870 -69.5190 38° Northeast 540 621 41,000  Level FlightAware ADS-B
Fri 07:46:22 AM 44.2780 -69.4190 38° Northeast 537 618 41,000  Level FlightAware ADS-B
Fri 07:47:02 AM 44.3520 -69.3390 38° Northeast 540 621 41,000  Level FlightAware ADS-B
Fri 07:47:42 AM 44.4340 -69.2490 38° Northeast 542 624 41,000  Level FlightAware ADS-B
Fri 07:48:27 AM 44.5230 -69.1500 38° Northeast 543 625 41,000  Level FlightAware ADS-B
Fri 07:49:12 AM 44.6130 -69.0510 38° Northeast 545 627 41,000  Level FlightAware ADS-B
Fri 07:49:52 AM 44.6890 -68.9660 38° Northeast 546 628 41,000  Level FlightAware ADS-B
Fri 07:50:32 AM 44.7700 -68.8760 38° Northeast 547 629 41,000  Level FlightAware ADS-B
Fri 07:51:17 AM 44.8590 -68.7770 38° Northeast 542 624 41,000  Level FlightAware ADS-B
Fri 07:51:57 AM 44.9400 -68.6860 38° Northeast 544 626 41,000  Level FlightAware ADS-B
Fri 07:52:42 AM 45.0280 -68.5860 39° Northeast 545 627 41,000  Level FlightAware ADS-B
Fri 07:53:22 AM 45.1060 -68.4980 39° Northeast 542 624 41,000  Level FlightAware ADS-B
Fri 07:54:02 AM 45.1840 -68.4090 39° Northeast 544 626 41,000  Level FlightAware ADS-B
Fri 07:54:47 AM 45.2710 -68.3090 39° Northeast 544 626 41,000  Level FlightAware ADS-B
Fri 07:55:27 AM 45.3480 -68.2220 38° Northeast 543 625 41,000  Level FlightAware ADS-B
Fri 07:56:12 AM 45.4390 -68.1170 39° Northeast 544 626 41,000  Level FlightAware ADS-B
Fri 07:56:52 AM 45.5160 -68.0280 39° Northeast 543 625 41,000  Level FlightAware ADS-B
Fri 07:57:32 AM 45.5930 -67.9390 39° Northeast 543 625 41,000  Level FlightAware ADS-B
Fri 07:58:12 AM 45.6730 -67.8450 39° Northeast 543 625 41,000  Level FlightAware ADS-B
Fri 07:58:57 AM 45.7550 -67.7500 39° Northeast 543 625 41,000  Level FlightAware ADS-B
Fri 07:59:42 AM 45.8430 -67.6460 39° Northeast 543 625 41,000  Level FlightAware ADS-B
Fri 08:00:22 AM 45.9220 -67.5540 39° Northeast 545 627 41,000  Level FlightAware ADS-B
Fri 08:01:02 AM 46.0000 -67.4610 40° Northeast 544 626 41,000  Level FlightAware ADS-B
Fri 08:01:47 AM 46.0860 -67.3600 39° Northeast 544 626 41,000  Level FlightAware ADS-B
Fri 08:02:27 AM 46.1610 -67.2690 40° Northeast 546 628 41,000  Level FlightAware ADS-B
Fri 08:03:12 AM 46.2500 -67.1640 39° Northeast 545 627 41,000  Level FlightAware ADS-B
Fri 08:04:07 AM 46.3590 -67.0320 40° Northeast 543 625 41,000  Level FlightAware ADS-B
Fri 08:04:42 AM 46.4210 -66.9590 39° Northeast 543 625 41,000  Level FlightAware ADS-B
Fri 08:05:32 AM 46.5040 -66.8620 39° Northeast 543 625 41,000  Level FlightAware ADS-B
Fri 08:06:07 AM 46.5870 -66.7560 41° Northeast 41,000  Level FlightAware ADS-B
Fri 08:06:52 AM 46.6740 -66.6500 40° Northeast 41,000  Level FlightAware ADS-B
Fri 08:07:48 AM 46.7667 -66.5167 40° Northeast 540 621 41,000  Level Moncton Center
Fri 08:08:48 AM 46.8833 -66.3833 38° Northeast 540 621 41,000  Level Moncton Center
Fri 08:09:48 AM 47.0000 -66.2333 41° Northeast 540 621 41,000  Level Moncton Center
Fri 08:10:48 AM 47.1000 -66.1000 42° Northeast 540 621 41,000  Level Moncton Center
Fri 08:11:48 AM 47.2333 -65.9500 37° Northeast 540 621 41,000  Level Moncton Center
Fri 08:12:48 AM 47.3333 -65.8000 45° Northeast 540 621 41,000  Level Moncton Center
Fri 08:13:48 AM 47.4667 -65.6333 40° Northeast 540 621 41,000  Level Moncton Center
Fri 08:14:48 AM 47.5667 -65.5167 38° Northeast 540 621 41,000  Level Moncton Center
Fri 08:15:48 AM 47.6833 -65.3667 41° Northeast 540 621 41,000  Level Moncton Center
Fri 08:16:48 AM 47.8000 -65.2167 41° Northeast 540 621 41,000  Level Moncton Center
Fri 08:17:48 AM 47.9167 -65.0667 41° Northeast 540 621 41,000  Level Moncton Center
Fri 08:18:48 AM 48.0333 -64.9000 44° Northeast 540 621 41,000  Level Moncton Center
Fri 08:19:48 AM 48.1333 -64.7667 42° Northeast 550 633 41,000  Level Moncton Center
Fri 08:20:48 AM 48.2500 -64.6000 44° Northeast 540 621 41,000  Level Moncton Center
Fri 08:21:48 AM 48.3667 -64.4500 40° Northeast 540 621 41,000  Level Moncton Center
Fri 08:22:48 AM 48.4667 -64.3167 41° Northeast 540 621 41,000  Level Moncton Center
Fri 08:23:48 AM 48.5833 -64.1667 40° Northeast 540 621 41,000  Level Moncton Center
Fri 08:24:48 AM 48.7000 -64.0167 40° Northeast 550 633 41,000  Level Moncton Center
Fri 08:25:48 AM 48.8167 -63.8333 46° Northeast 550 633 41,000  Level Moncton Center
Fri 08:26:47 AM 48.9167 -63.7000 41° Northeast 540 621 41,000  Level Gander Center
Fri 08:27:47 AM 49.0500 -63.5500 36° Northeast 540 621 41,000  Level Gander Center
Fri 08:28:47 AM 49.1500 -63.3833 47° Northeast 550 633 41,000  Level Gander Center
Fri 08:29:47 AM 49.2667 -63.2333 40° Northeast 550 633 41,000  Level Gander Center
Fri 08:30:47 AM 49.3667 -63.0833 44° Northeast 560 644 41,000  Level Gander Center
Fri 08:31:47 AM 49.4833 -62.9000 46° Northeast 560 644 41,000  Level Gander Center
Fri 08:32:47 AM 49.6167 -62.7500 36° Northeast 550 633 41,000  Level Gander Center
Fri 08:33:47 AM 49.7333 -62.5833 43° Northeast 560 644 41,000  Level Gander Center
Fri 08:34:47 AM 49.8333 -62.4000 50° Northeast 550 633 41,000  Level Gander Center
Fri 08:35:47 AM 49.9500 -62.2500 40° Northeast 550 633 41,000  Level Gander Center
Fri 08:36:47 AM 50.0500 -62.0833 47° Northeast 560 644 41,000  Level Gander Center
Fri 08:37:47 AM 50.1667 -61.9167 42° Northeast 560 644 41,000  Level Gander Center
Fri 08:38:47 AM 50.2833 -61.7500 42° Northeast 550 633 41,000  Level Gander Center
Fri 08:39:47 AM 50.4000 -61.5667 45° Northeast 560 644 41,000  Level Gander Center
Fri 08:40:47 AM 50.5000 -61.4167 44° Northeast 550 633 41,000  Level Gander Center
Fri 08:41:47 AM 50.6167 -61.2333 45° Northeast 560 644 41,000  Level Gander Center
Fri 08:42:47 AM 50.7167 -61.0667 47° Northeast 550 633 41,000  Level Gander Center
Fri 08:43:47 AM 50.8333 -60.9167 39° Northeast 550 633 41,000  Level Gander Center
Fri 08:44:47 AM 50.9500 -60.7167 47° Northeast 550 633 41,000  Level Gander Center
Fri 08:45:47 AM 51.0500 -60.5667 43° Northeast 550 633 41,000  Level Gander Center
Fri 08:46:47 AM 51.1667 -60.3833 45° Northeast 550 633 41,000  Level Gander Center
Fri 08:47:47 AM 51.2667 -60.2167 46° Northeast 560 644 41,000  Level Gander Center
Fri 08:48:47 AM 51.3833 -60.0167 47° Northeast 560 644 41,000 200 Level Gander Center
Fri 08:49:47 AM 51.4833 -59.8333 49° Northeast 550 633 41,400 500 Climbing Gander Center
Fri 08:50:47 AM 51.5833 -59.6333 51° Northeast 550 633 42,000 550 Climbing Gander Center
Fri 08:51:47 AM 51.6833 -59.4833 43° Northeast 550 633 42,500 600 Climbing Gander Center
Fri 08:52:47 AM 51.7667 -59.2833 56° Northeast 540 621 43,200 600 Climbing Gander Center
Fri 08:53:47 AM 51.8667 -59.0833 51° Northeast 540 621 43,700 550 Climbing Gander Center
Fri 08:54:47 AM 51.9667 -58.9167 46° Northeast 540 621 44,300 600 Climbing Gander Center
Fri 08:55:47 AM 52.0667 -58.7167 51° Northeast 530 610 44,900 350 Climbing Gander Center
Fri 08:56:47 AM 52.1667 -58.5333 48° Northeast 530 610 45,000 50 Climbing Gander Center
Fri 08:57:47 AM 52.2500 -58.3333 56° Northeast 540 621 45,000  Level Gander Center
Fri 08:58:47 AM 52.3500 -58.1667 45° Northeast 550 633 45,000  Level Gander Center
Fri 08:59:47 AM 52.4500 -57.9667 51° Northeast 550 633 45,000  Level Gander Center
Fri 09:00:47 AM 52.5500 -57.7667 51° Northeast 550 633 45,000  Level Gander Center
Fri 09:01:47 AM 52.6333 -57.5667 55° Northeast 550 633 45,000  Level Gander Center
Fri 09:02:47 AM 52.7333 -57.3667 50° Northeast 550 633 45,000  Level Gander Center
Fri 09:03:47 AM 52.8167 -57.1833 53° Northeast 550 633 45,000  Level Gander Center
Fri 09:04:47 AM 52.9167 -56.9833 50° Northeast 550 633 45,000  Level Gander Center
Fri 09:05:47 AM 53.0167 -56.7833 50° Northeast 550 633 45,000  Level Gander Center
Fri 09:06:47 AM 53.1167 -56.5667 52° Northeast 550 633 45,000  Level Gander Center
Fri 09:07:47 AM 53.2000 -56.3667 55° Northeast 540 621 45,000  Level Gander Center
Fri 09:08:47 AM 53.3000 -56.1667 50° Northeast 550 633 45,000  Level Gander Center
Fri 09:09:47 AM 53.3833 -55.9833 53° Northeast 540 621 45,000  Level Gander Center
Fri 09:10:47 AM 53.4833 -55.7667 52° Northeast 540 621 45,000  Level Gander Center
Fri 09:11:47 AM 53.5667 -55.5667 55° Northeast 540 621 45,000  Level Gander Center
Fri 09:12:47 AM 53.6500 -55.3833 52° Northeast 550 633 45,000  Level Gander Center
Fri 09:13:47 AM 53.7500 -55.1667 52° Northeast 540 621 45,000  Level Gander Center
Fri 09:14:47 AM 53.8333 -54.9667 55° Northeast 540 621 45,000  Level Gander Center
Fri 09:15:47 AM 53.9333 -54.7500 52° Northeast 540 621 45,000  Level Gander Center
Fri 09:16:47 AM 54.0333 -54.5667 47° Northeast 540 621 45,000  Level Gander Center
Fri 09:17:47 AM 54.1167 -54.3500 57° Northeast 550 633 45,000  Level Gander Center
Fri 09:18:47 AM 54.2167 -54.1500 49° Northeast 540 621 45,000  Level Gander Center
Fri 09:19:47 AM 54.3167 -53.9667 47° Northeast 550 633 45,000  Level Gander Center
Fri 09:20:47 AM 54.4000 -53.7500 56° Northeast 550 633 45,000  Level Gander Center
Fri 09:21:47 AM 54.4833 -53.5333 56° Northeast 540 621 45,000  Level Gander Center
Fri 09:22:47 AM 54.6000 -53.3333 45° Northeast 550 633 45,000  Level Gander Center
Fri 09:25:43 AM 54.8500 -52.7333 54° Northeast 320 368 45,000  Level Gander Center
Fri 09:26:07 AM 54.8833 -52.6333 60° Northeast 440 506 45,000  Level Gander Center
Fri 09:26:43 AM 54.9333 -52.5167 53° Northeast 520 598 45,000  Level Gander Center
Fri 09:27:43 AM 55.0167 -52.3167 54° Northeast 540 621 45,000  Level Gander Center
Fri 09:28:07 AM 55.0500 -52.2167 60° Northeast 540 621 45,000  Level Gander Center
Fri 09:28:43 AM 55.1167 -52.1167 41° Northeast 540 621 45,000  Level Gander Center
Fri 09:29:07 AM 55.1500 -52.0333 55° Northeast 540 621 45,000  Level Gander Center
Fri 09:30:07 AM 55.2500 -51.8000 53° Northeast 540 621 45,000  Level Gander Center
Fri 09:30:43 AM 55.2833 -51.6667 66° East 540 621 45,000  Level Gander Center
Fri 09:31:43 AM 55.4000 -51.5000 39° Northeast 540 621 45,000  Level Gander Center
Fri 09:32:43 AM 55.4667 -51.2667 63° Northeast 540 621 45,000  Level Gander Center
Fri 09:35:00 AM 55.6279 -50.8906 53° Northeast  Level FlightAware Approximate
Fri 09:42:00 AM 56.1497 -49.3966 66° East  Level FlightAware Approximate
Fri 09:43:00 AM 56.2065 -49.1633 66° East  Level FlightAware Approximate
Fri 09:44:00 AM 56.2629 -48.9293 66° East  Level FlightAware Approximate
Fri 09:45:00 AM 56.3188 -48.6946 67° East  Level FlightAware Approximate
Fri 09:46:00 AM 56.3743 -48.4593 67° East  Level FlightAware Approximate
Fri 09:47:00 AM 56.4294 -48.2233 67° East  Level FlightAware Approximate
Fri 09:48:00 AM 56.4840 -47.9865 67° East  Level FlightAware Approximate
Fri 09:49:00 AM 56.5381 -47.7491 67° East  Level FlightAware Approximate
Fri 09:50:00 AM 56.5918 -47.5111 68° East  Level FlightAware Approximate
Fri 09:51:00 AM 56.6451 -47.2723 68° East  Level FlightAware Approximate
Fri 09:52:00 AM 56.6981 -47.0331 68° East  Level FlightAware Approximate
Fri 09:53:00 AM 56.7507 -46.7932 68° East  Level FlightAware Approximate
Fri 09:54:00 AM 56.8028 -46.5526 68° East  Level FlightAware Approximate
Fri 09:55:00 AM 56.8544 -46.3114 69° East  Level FlightAware Approximate
Fri 09:56:00 AM 56.9056 -46.0695 69° East  Level FlightAware Approximate
Fri 09:57:00 AM 56.9563 -45.8269 69° East  Level FlightAware Approximate
Fri 09:58:00 AM 57.0066 -45.5837 69° East  Level FlightAware Approximate
Fri 09:59:00 AM 57.0564 -45.3398 69° East  Level FlightAware Approximate
Fri 10:00:00 AM 57.1057 -45.0953 70° East  Level FlightAware Approximate
Fri 10:01:00 AM 57.1545 -44.8501 70° East  Level FlightAware Approximate
Fri 10:02:00 AM 57.2029 -44.6043 70° East  Level FlightAware Approximate
Fri 10:03:00 AM 57.2507 -44.3578 70° East  Level FlightAware Approximate
Fri 10:04:00 AM 57.2981 -44.1107 70° East  Level FlightAware Approximate
Fri 10:05:00 AM 57.3450 -43.8630 71° East  Level FlightAware Approximate
Fri 10:06:00 AM 57.3914 -43.6146 71° East  Level FlightAware Approximate
Fri 10:07:00 AM 57.4374 -43.3657 71° East  Level FlightAware Approximate
Fri 10:08:00 AM 57.4828 -43.1160 71° East  Level FlightAware Approximate
Fri 10:09:00 AM 57.5277 -42.8658 71° East  Level FlightAware Approximate
Fri 10:10:00 AM 57.5722 -42.6150 72° East  Level FlightAware Approximate
Fri 10:11:00 AM 57.6161 -42.3635 72° East  Level FlightAware Approximate
Fri 10:12:00 AM 57.6595 -42.1115 72° East  Level FlightAware Approximate
Fri 10:13:00 AM 57.7025 -41.8588 72° East  Level FlightAware Approximate
Fri 10:14:00 AM 57.7449 -41.6055 72° East  Level FlightAware Approximate
Fri 10:15:00 AM 57.7868 -41.3517 73° East  Level FlightAware Approximate
Fri 10:16:00 AM 57.8283 -41.0973 73° East  Level FlightAware Approximate
Fri 10:17:00 AM 57.8692 -40.8422 73° East  Level FlightAware Approximate
Fri 10:18:00 AM 57.9096 -40.5866 73° East  Level FlightAware Approximate
Fri 10:19:00 AM 57.9494 -40.3305 74° East  Level FlightAware Approximate
Fri 10:20:00 AM 57.9888 -40.0737 74° East  Level FlightAware Approximate
Fri 10:21:00 AM 58.0073 -39.8097 86° East  Level FlightAware Approximate
Fri 10:22:00 AM 58.0172 -39.5428 86° East  Level FlightAware Approximate
Fri 10:23:00 AM 58.0264 -39.2757 86° East  Level FlightAware Approximate
Fri 10:24:00 AM 58.0351 -39.0085 86° East  Level FlightAware Approximate
Fri 10:25:00 AM 58.0432 -38.7412 87° East  Level FlightAware Approximate
Fri 10:26:00 AM 58.0508 -38.4737 87° East  Level FlightAware Approximate
Fri 10:27:00 AM 58.0578 -38.2062 87° East  Level FlightAware Approximate
Fri 10:28:00 AM 58.0643 -37.9385 87° East  Level FlightAware Approximate
Fri 10:29:00 AM 58.0701 -37.6708 88° East  Level FlightAware Approximate
Fri 10:30:00 AM 58.0755 -37.4029 88° East  Level FlightAware Approximate
Fri 10:31:00 AM 58.0802 -37.1350 88° East  Level FlightAware Approximate
Fri 10:32:00 AM 58.0844 -36.8671 88° East  Level FlightAware Approximate
Fri 10:33:00 AM 58.0881 -36.5990 88° East  Level FlightAware Approximate
Fri 10:34:00 AM 58.0911 -36.3310 89° East  Level FlightAware Approximate
Fri 10:35:00 AM 58.0937 -36.0628 89° East  Level FlightAware Approximate
Fri 10:36:00 AM 58.0956 -35.7947 89° East  Level FlightAware Approximate
Fri 10:37:00 AM 58.0970 -35.5265 89° East  Level FlightAware Approximate
Fri 10:38:00 AM 58.0978 -35.2583 90° East  Level FlightAware Approximate
Fri 10:39:00 AM 58.0981 -34.9901 90° East  Level FlightAware Approximate
Fri 10:40:00 AM 58.0978 -34.7219 90° East  Level FlightAware Approximate
Fri 10:41:00 AM 58.0969 -34.4537 90° East  Level FlightAware Approximate
Fri 10:42:00 AM 58.0955 -34.1855 90° East  Level FlightAware Approximate
Fri 10:43:00 AM 58.0935 -33.9173 91° East  Level FlightAware Approximate
Fri 10:44:00 AM 58.0909 -33.6492 91° East  Level FlightAware Approximate
Fri 10:45:00 AM 58.0878 -33.3811 91° East  Level FlightAware Approximate
Fri 10:46:00 AM 58.0841 -33.1131 91° East  Level FlightAware Approximate
Fri 10:47:00 AM 58.0799 -32.8451 92° East  Level FlightAware Approximate
Fri 10:48:00 AM 58.0751 -32.5772 92° East  Level FlightAware Approximate
Fri 10:49:00 AM 58.0697 -32.3094 92° East  Level FlightAware Approximate
Fri 10:50:00 AM 58.0638 -32.0416 92° East  Level FlightAware Approximate
Fri 10:51:00 AM 58.0573 -31.7740 93° East  Level FlightAware Approximate
Fri 10:52:00 AM 58.0503 -31.5065 93° East  Level FlightAware Approximate
Fri 10:53:00 AM 58.0426 -31.2390 93° East  Level FlightAware Approximate
Fri 10:54:00 AM 58.0345 -30.9717 93° East  Level FlightAware Approximate
Fri 10:55:00 AM 58.0257 -30.7045 93° East  Level FlightAware Approximate
Fri 10:56:00 AM 58.0164 -30.4374 94° East  Level FlightAware Approximate
Fri 10:57:00 AM 58.0066 -30.1705 94° East  Level FlightAware Approximate
Fri 10:58:00 AM 57.9942 -29.9041 96° East  Level FlightAware Approximate
Fri 10:59:00 AM 57.9778 -29.6385 97° East  Level FlightAware Approximate
Fri 11:00:00 AM 57.9609 -29.3732 97° East  Level FlightAware Approximate
Fri 11:01:00 AM 57.9434 -29.1081 97° East  Level FlightAware Approximate
Fri 11:02:00 AM 57.9253 -28.8433 97° East  Level FlightAware Approximate
Fri 11:03:00 AM 57.9067 -28.5788 97° East  Level FlightAware Approximate
Fri 11:04:00 AM 57.8876 -28.3145 98° East  Level FlightAware Approximate
Fri 11:05:00 AM 57.8679 -28.0506 98° East  Level FlightAware Approximate
Fri 11:06:00 AM 57.8476 -27.7869 98° East  Level FlightAware Approximate
Fri 11:07:00 AM 57.8268 -27.5235 98° East  Level FlightAware Approximate
Fri 11:08:00 AM 57.8055 -27.2604 99° East  Level FlightAware Approximate
Fri 11:09:00 AM 57.7836 -26.9976 99° East  Level FlightAware Approximate
Fri 11:10:00 AM 57.7612 -26.7352 99° East  Level FlightAware Approximate
Fri 11:11:00 AM 57.7382 -26.4731 99° East  Level FlightAware Approximate
Fri 11:12:00 AM 57.7147 -26.2113 99° East  Level FlightAware Approximate
Fri 11:13:00 AM 57.6906 -25.9499 100° East  Level FlightAware Approximate
Fri 11:14:00 AM 57.6660 -25.6888 100° East  Level FlightAware Approximate
Fri 11:15:00 AM 57.6409 -25.4281 100° East  Level FlightAware Approximate
Fri 11:16:00 AM 57.6153 -25.1677 100° East  Level FlightAware Approximate
Fri 11:17:00 AM 57.5891 -24.9077 101° East  Level FlightAware Approximate
Fri 11:18:00 AM 57.5624 -24.6481 101° East  Level FlightAware Approximate
Fri 11:19:00 AM 57.5351 -24.3889 101° East  Level FlightAware Approximate
Fri 11:20:00 AM 57.5075 -24.1300 101° East  Level FlightAware Approximate
Fri 11:21:00 AM 57.4800 -23.8713 101° East  Level FlightAware Approximate
Fri 11:22:00 AM 57.4518 -23.6129 101° East  Level FlightAware Approximate
Fri 11:23:00 AM 57.4232 -23.3550 102° East  Level FlightAware Approximate
Fri 11:24:00 AM 57.3941 -23.0975 102° East  Level FlightAware Approximate
Fri 11:25:00 AM 57.3645 -22.8403 102° East  Level FlightAware Approximate
Fri 11:26:00 AM 57.3345 -22.5836 102° East  Level FlightAware Approximate
Fri 11:27:00 AM 57.3039 -22.3273 102° East  Level FlightAware Approximate
Fri 11:28:00 AM 57.2729 -22.0714 103° East  Level FlightAware Approximate
Fri 11:29:00 AM 57.2413 -21.8159 103° East  Level FlightAware Approximate
Fri 11:30:00 AM 57.2091 -21.5609 103° East  Level FlightAware Approximate
Fri 11:31:00 AM 57.1765 -21.3063 103° East  Level FlightAware Approximate
Fri 11:32:00 AM 57.1434 -21.0522 103° East  Level FlightAware Approximate
Fri 11:33:00 AM 57.1097 -20.7985 104° East  Level FlightAware Approximate
Fri 11:34:00 AM 57.0755 -20.5453 104° East  Level FlightAware Approximate
Fri 11:35:00 AM 57.0409 -20.2926 104° East  Level FlightAware Approximate
Fri 11:36:00 AM 57.0057 -20.0403 104° East  Level FlightAware Approximate
Fri 11:37:00 AM 56.9518 -19.8002 114° Southeast  Level FlightAware Approximate
Fri 11:38:00 AM 56.8940 -19.5631 114° Southeast  Level FlightAware Approximate
Fri 11:39:00 AM 56.8358 -19.3267 114° Southeast  Level FlightAware Approximate
Fri 11:40:00 AM 56.7771 -19.0910 114° Southeast  Level FlightAware Approximate
Fri 11:41:00 AM 56.7180 -18.8560 115° Southeast  Level FlightAware Approximate
Fri 11:42:00 AM 56.6584 -18.6218 115° Southeast  Level FlightAware Approximate
Fri 11:43:00 AM 56.5984 -18.3884 115° Southeast  Level FlightAware Approximate
Fri 11:44:00 AM 56.5380 -18.1557 115° Southeast  Level FlightAware Approximate
Fri 11:45:00 AM 56.4771 -17.9237 115° Southeast  Level FlightAware Approximate
Fri 11:46:00 AM 56.4158 -17.6925 116° Southeast  Level FlightAware Approximate
Fri 11:47:00 AM 56.3541 -17.4620 116° Southeast  Level FlightAware Approximate
Fri 11:48:00 AM 56.2920 -17.2323 116° Southeast  Level FlightAware Approximate
Fri 11:49:00 AM 56.2294 -17.0033 116° Southeast  Level FlightAware Approximate
Fri 11:50:00 AM 56.1664 -16.7751 116° Southeast  Level FlightAware Approximate
Fri 11:51:00 AM 56.1030 -16.5476 116° Southeast  Level FlightAware Approximate
Fri 11:52:00 AM 56.0391 -16.3209 117° Southeast  Level FlightAware Approximate
Fri 11:53:00 AM 55.9749 -16.0949 117° Southeast  Level FlightAware Approximate
Fri 11:54:00 AM 55.9102 -15.8696 117° Southeast  Level FlightAware Approximate
Fri 11:55:00 AM 55.8451 -15.6452 117° Southeast  Level FlightAware Approximate
Fri 11:56:00 AM 55.7797 -15.4214 117° Southeast  Level FlightAware Approximate
Fri 11:57:00 AM 55.7138 -15.1985 118° Southeast  Level FlightAware Approximate
Fri 11:58:00 AM 55.6475 -14.9762 118° Southeast  Level FlightAware Approximate
Fri 11:59:00 AM 55.5808 -14.7548 118° Southeast  Level FlightAware Approximate
Fri 11:59:22 AM 55.2750 -14.2210 118° Southeast 530 610 45,000  Level FlightAware ADS-B
Fri 11:59:57 AM 55.2310 -14.0740 118° Southeast 532 612 45,000  Level FlightAware ADS-B
Fri 12:00:00 PM 55.5137 -14.5341 118° Southeast  Level FlightAware Approximate
Fri 12:00:42 PM 55.1830 -13.9120 117° Southeast 530 610 45,000  Level FlightAware ADS-B
Fri 12:01:27 PM 55.1340 -13.7480 118° Southeast 529 609 45,000  Level FlightAware ADS-B
Fri 12:02:07 PM 55.0900 -13.6020 118° Southeast 526 605 45,000  Level FlightAware ADS-B
Fri 12:02:47 PM 55.0420 -13.4430 118° Southeast 525 604 45,000  Level FlightAware ADS-B
Fri 12:03:27 PM 54.9960 -13.2940 118° Southeast 524 603 45,000  Level FlightAware ADS-B
Fri 12:04:12 PM 54.9470 -13.1330 118° Southeast 521 600 45,000  Level FlightAware ADS-B
Fri 12:04:57 PM 54.8950 -12.9650 118° Southeast 518 596 45,000  Level FlightAware ADS-B
Fri 12:05:37 PM 54.8510 -12.8230 118° Southeast 523 602 45,000  Level FlightAware ADS-B
Fri 12:06:17 PM 54.8000 -12.6600 118° Southeast 524 603 45,000  Level FlightAware ADS-B
Fri 12:06:57 PM 54.7520 -12.5090 119° Southeast 521 600 45,000  Level FlightAware ADS-B
Fri 12:09:00 PM 54.6385 -12.0462 113° Southeast  Level FlightAware Approximate
Fri 12:09:22 PM 54.5860 -11.9880 113° Southeast 528 608 45,000  Level FlightAware ADS-B
Fri 12:10:02 PM 54.5380 -11.8410 119° Southeast 526 605 45,000  Level FlightAware ADS-B
Fri 12:10:47 PM 54.4850 -11.6770 119° Southeast 528 608 45,000  Level FlightAware ADS-B
Fri 12:11:27 PM 54.4360 -11.5290 120° Southeast 532 612 45,000  Level FlightAware ADS-B
Fri 12:12:07 PM 54.3860 -11.3790 120° Southeast 528 608 45,000  Level FlightAware ADS-B
Fri 12:12:52 PM 54.3320 -11.2160 120° Southeast 528 608 45,000  Level FlightAware ADS-B
Fri 12:13:32 PM 54.2870 -11.0790 119° Southeast 528 608 45,000  Level FlightAware ADS-B
Fri 12:14:12 PM 54.2330 -10.9200 120° Southeast 532 612 45,000  Level FlightAware ADS-B
Fri 12:14:57 PM 54.1780 -10.7560 120° Southeast 531 611 45,000  Level FlightAware ADS-B
Fri 12:15:37 PM 54.1290 -10.6130 120° Southeast 526 605 45,000  Level FlightAware ADS-B
Fri 12:16:17 PM 54.0770 -10.4630 121° Southeast 523 602 45,000  Level FlightAware ADS-B
Fri 12:18:00 PM 53.9964 -10.0720 109° East  Level FlightAware Approximate
Fri 12:18:22 PM 53.9270 -10.0290 109° East 534 615 45,000  Level FlightAware ADS-B
Fri 12:20:47 PM 53.7470 -9.5190 121° Southeast 525 604 45,000  Level FlightAware ADS-B
Fri 12:21:27 PM 53.6960 -9.3800 122° Southeast 530 610 45,000  Level FlightAware ADS-B
Fri 12:22:12 PM 53.6380 -9.2180 121° Southeast 527 606 45,000  Level FlightAware ADS-B
Fri 12:22:52 PM 53.5880 -9.0790 121° Southeast 520 598 45,000 -1,500 Level FlightAware ADS-B
Fri 12:23:12 PM 53.5563 -8.9918 121° Southeast 496 571 43,500 -2,368 Descending FlightAware UK
Fri 12:23:30 PM 53.5335 -8.9296 122° Southeast 496 571 43,500 3,600 Level FlightAware UK
Fri 12:23:37 PM 53.5310 -8.9220 122° Southeast 524 603 45,000  Climbing FlightAware ADS-B
Fri 12:23:54 PM 53.5032 -8.8467 122° Southeast 498 573 43,500 -2,571 Descending FlightAware UK
Fri 12:24:12 PM 53.4805 -8.7844 121° Southeast 500 575 43,500 3,913 Level FlightAware UK
Fri 12:24:17 PM 53.4800 -8.7850 121° Southeast 526 605 45,000 -250 Climbing FlightAware ADS-B
Fri 12:24:36 PM 53.4498 -8.7013 121° Southeast 498 573 43,400 -2,432 Descending FlightAware UK
Fri 12:24:54 PM 53.4268 -8.6391 122° Southeast 500 575 43,500 4,571 Climbing FlightAware UK
Fri 12:24:57 PM 53.4280 -8.6440 122° Southeast 527 606 45,000  Climbing FlightAware ADS-B
Fri 12:25:12 PM 53.4036 -8.5768 122° Southeast 498 573 43,500 -2,727 Descending FlightAware UK
Fri 12:25:30 PM 53.3804 -8.5148 122° Southeast 500 575 43,500 3,000 Level FlightAware UK
Fri 12:25:42 PM 53.3700 -8.4880 122° Southeast 527 606 45,000  Climbing FlightAware ADS-B
Fri 12:26:00 PM 53.3414 -8.4114 122° Southeast 496 571 43,500 -2,500 Descending FlightAware UK
Fri 12:26:18 PM 53.3182 -8.3497 122° Southeast 494 568 43,500 4,091 Level FlightAware UK
Fri 12:26:22 PM 53.3180 -8.3470 122° Southeast 524 603 45,000  Climbing FlightAware ADS-B
Fri 12:26:42 PM 53.2874 -8.2672 122° Southeast 494 568 43,500 -2,368 Descending FlightAware UK
Fri 12:27:00 PM 53.2641 -8.2053 122° Southeast 502 578 43,500 3,600 Level FlightAware UK
Fri 12:27:07 PM 53.2610 -8.1950 122° Southeast 523 602 45,000  Climbing FlightAware ADS-B
Fri 12:27:24 PM 53.2330 -8.1228 122° Southeast 498 573 43,500 -2,571 Descending FlightAware UK
Fri 12:27:42 PM 53.2098 -8.0614 122° Southeast 494 568 43,500 3,913 Level FlightAware UK
Fri 12:27:47 PM 53.2090 -8.0570 122° Southeast 518 596 45,000  Climbing FlightAware ADS-B
Fri 12:28:06 PM 53.1791 -7.9803 122° Southeast 496 571 43,500  Descending FlightAware UK
Fri 12:28:27 PM 53.1570 -7.9210 122° Southeast 519 597 45,000  Climbing FlightAware ADS-B
Fri 12:28:42 PM 53.1328 -7.8589 122° Southeast 502 578 43,500 -2,727 Descending FlightAware UK
Fri 12:29:00 PM 53.1097 -7.7978 122° Southeast 500 575 43,500 3,000 Level FlightAware UK
Fri 12:29:12 PM 53.0990 -7.7690 122° Southeast 517 595 45,000  Climbing FlightAware ADS-B
Fri 12:29:30 PM 53.0709 -7.6968 122° Southeast 496 571 43,500 -2,500 Descending FlightAware UK
Fri 12:29:48 PM 53.0475 -7.6361 123° Southeast 500 575 43,500 4,091 Level FlightAware UK
Fri 12:29:52 PM 53.0470 -7.6360 123° Southeast 519 597 45,000  Climbing FlightAware ADS-B
Fri 12:30:12 PM 53.0162 -7.5553 123° Southeast 498 573 43,500 -2,368 Descending FlightAware UK
Fri 12:30:30 PM 52.9929 -7.4948 123° Southeast 496 571 43,500 4,500 Level FlightAware UK
Fri 12:30:32 PM 52.9940 -7.4960 123° Southeast 515 593 45,000  Climbing FlightAware ADS-B
Fri 12:30:48 PM 52.9695 -7.4346 123° Southeast 494 568 43,500 -2,647 Descending FlightAware UK
Fri 12:31:06 PM 52.9461 -7.3742 123° Southeast 498 573 43,500  Level FlightAware UK
Fri 12:31:24 PM 52.9227 -7.3139 123° Southeast 502 578 43,500 4,286 Level FlightAware UK
Fri 12:31:27 PM 52.9280 -7.3270 123° Southeast 520 598 45,000  Climbing FlightAware ADS-B
Fri 12:31:42 PM 52.8991 -7.2535 123° Southeast 494 568 43,500 -2,727 Descending FlightAware UK
Fri 12:32:00 PM 52.8755 -7.1932 123° Southeast 496 571 43,500 3,000 Level FlightAware UK
Fri 12:32:12 PM 52.8670 -7.1720 123° Southeast 519 597 45,000  Climbing FlightAware ADS-B
Fri 12:32:30 PM 52.8357 -7.0921 123° Southeast 502 578 43,500 -2,500 Descending FlightAware UK
Fri 12:32:48 PM 52.8119 -7.0318 123° Southeast 500 575 43,500 4,091 Level FlightAware UK
Fri 12:32:52 PM 52.8140 -7.0370 123° Southeast 518 596 45,000  Climbing FlightAware ADS-B
Fri 12:33:12 PM 52.7803 -6.9516 123° Southeast 496 571 43,500 -2,368 Descending FlightAware UK
Fri 12:33:30 PM 52.7567 -6.8917 123° Southeast 498 573 43,500 3,600 Level FlightAware UK
Fri 12:33:37 PM 52.7540 -6.8860 123° Southeast 517 595 45,000  Climbing FlightAware ADS-B
Fri 12:33:54 PM 52.7251 -6.8122 123° Southeast 496 571 43,500 -2,571 Descending FlightAware UK
Fri 12:34:12 PM 52.7012 -6.7524 123° Southeast 504 580 43,500 3,913 Level FlightAware UK
Fri 12:34:17 PM 52.7030 -6.7560 123° Southeast 525 604 45,000  Climbing FlightAware ADS-B
Fri 12:34:36 PM 52.6692 -6.6727 123° Southeast 492 566 43,500 -2,432 Descending FlightAware UK
Fri 12:34:54 PM 52.6453 -6.6129 123° Southeast 496 571 43,500 3,462 Level FlightAware UK
Fri 12:35:02 PM 52.6420 -6.6050 123° Southeast 525 604 45,000  Climbing FlightAware ADS-B
Fri 12:35:18 PM 52.6132 -6.5332 123° Southeast 504 580 43,500 -2,647 Descending FlightAware UK
Fri 12:35:36 PM 52.5893 -6.4738 123° Southeast 500 575 43,500 3,750 Level FlightAware UK
Fri 12:35:42 PM 52.5870 -6.4680 123° Southeast 502 578 45,000  Climbing FlightAware ADS-B
Fri 12:36:00 PM 52.5589 -6.3983 123° Southeast 486 559 43,500 -2,500 Descending FlightAware UK
Fri 12:36:18 PM 52.5355 -6.3406 124° Southeast 488 562 43,500 2,813 Level FlightAware UK
Fri 12:36:32 PM 52.5270 -6.3200 124° Southeast 504 580 45,000  Climbing FlightAware ADS-B
Fri 12:36:36 PM 52.5119 -6.2824 124° Southeast 488 562 43,500 -5,625 Descending FlightAware UK
Fri 12:36:48 PM 52.4960 -6.2436 124° Southeast 494 568 43,500  Level FlightAware UK
Fri 12:37:06 PM 52.4723 -6.1852 124° Southeast 500 575 43,500 3,103 Level FlightAware UK
Fri 12:37:17 PM 52.4590 -6.1530 124° Southeast 516 594 45,000  Climbing FlightAware ADS-B
Fri 12:37:36 PM 52.4324 -6.0879 124° Southeast 494 568 43,500 -2,432 Descending FlightAware UK
Fri 12:37:54 PM 52.4087 -6.0300 124° Southeast 490 564 43,500 3,462 Level FlightAware UK
Fri 12:38:02 PM 52.4030 -6.0160 124° Southeast 515 593 45,000  Climbing FlightAware ADS-B
Fri 12:38:18 PM 52.3767 -5.9520 124° Southeast 492 566 43,500 -2,647 Descending FlightAware UK
Fri 12:38:36 PM 52.3526 -5.8936 124° Southeast 492 566 43,500 3,750 Level FlightAware UK
Fri 12:38:42 PM 52.3480 -5.8810 124° Southeast 524 603 45,000  Climbing FlightAware ADS-B
Fri 12:39:00 PM 52.3202 -5.8150 124° Southeast 500 575 43,500 -2,500 Descending FlightAware UK
Fri 12:39:18 PM 52.2957 -5.7562 124° Southeast 492 566 43,500 3,333 Level FlightAware UK
Fri 12:39:27 PM 52.2890 -5.7390 124° Southeast 518 596 45,000  Climbing FlightAware ADS-B
Fri 12:39:48 PM 52.2588 -5.6557 124° Southeast 492 566 43,500 -2,308 Descending FlightAware UK
Fri 12:40:06 PM 52.2419 -5.5901 113° Southeast 492 566 43,500 4,737 Level FlightAware UK
Fri 12:40:07 PM 52.2440 -5.5970 113° Southeast 528 608 45,000  Climbing FlightAware ADS-B
Fri 12:40:24 PM 52.2290 -5.5214 113° Southeast 494 568 43,500 -2,571 Descending FlightAware UK
Fri 12:40:42 PM 52.2156 -5.4529 108° East 496 571 43,500 3,214 Level FlightAware UK
Fri 12:40:52 PM 52.2100 -5.4220 108° East 535 616 45,000  Climbing FlightAware ADS-B
Fri 12:41:12 PM 52.1938 -5.3377 108° East 496 571 43,500 -2,368 Descending FlightAware UK
Fri 12:41:30 PM 52.1806 -5.2686 107° East 498 573 43,500 4,500 Level FlightAware UK
Fri 12:41:32 PM 52.1810 -5.2710 107° East 536 617 45,000  Climbing FlightAware ADS-B
Fri 12:41:48 PM 52.1674 -5.1986 107° East 500 575 43,500 -2,647 Descending FlightAware UK
Fri 12:42:06 PM 52.1543 -5.1302 107° East 500 575 43,500 3,750 Level FlightAware UK
Fri 12:42:12 PM 52.1510 -5.1160 107° East 534 615 45,000  Climbing FlightAware ADS-B
Fri 12:42:30 PM 52.1363 -5.0375 107° East 502 578 43,500  Descending FlightAware UK
Fri 12:42:49 PM 52.1229 -4.9680 107° East 528 608 45,000  Climbing FlightAware ADS-B
Fri 12:43:06 PM 52.1098 -4.9013 107° East 498 573 43,500 -2,571 Descending FlightAware UK
Fri 12:43:24 PM 52.0970 -4.8344 107° East 498 573 43,500 2,903 Level FlightAware UK
Fri 12:43:37 PM 52.0890 -4.7910 107° East 525 604 45,000 2,813 Climbing FlightAware ADS-B
Fri 12:43:56 PM 52.0736 -4.7150 108° East 525 604 45,000 -2,571 Level FlightAware ADS-B
Fri 12:44:12 PM 52.0617 -4.6544 108° East 496 571 43,500 -2,647 Descending FlightAware UK
Fri 12:44:30 PM 52.0484 -4.5870 108° East 498 573 43,500 2,368 Level FlightAware UK
Fri 12:44:50 PM 52.0342 -4.5154 108° East 525 604 45,000  Climbing FlightAware ADS-B
Fri 12:45:06 PM 52.0216 -4.4518 108° East 500 575 43,500  Descending FlightAware UK
Fri 12:45:22 PM 52.0106 -4.3966 108° East 524 603 45,000  Climbing FlightAware ADS-B
Fri 12:45:37 PM 51.9992 -4.3390 108° East 500 575 43,500  Descending FlightAware UK
Fri 12:45:53 PM 51.9874 -4.2804 108° East 524 603 45,000  Climbing FlightAware ADS-B
Fri 12:46:13 PM 51.9723 -4.2051 108° East 498 573 43,500 -2,368 Descending FlightAware UK
Fri 12:46:31 PM 51.9588 -4.1382 108° East 500 575 43,500  Level FlightAware UK
Fri 12:46:49 PM 51.9452 -4.0714 108° East 500 575 43,500  Level FlightAware UK
Fri 12:47:07 PM 51.9316 -4.0047 108° East 498 573 43,500 5,000 Level FlightAware UK
Fri 12:47:07 PM 51.9340 -4.0140 108° East 519 597 45,000  Climbing FlightAware ADS-B
Fri 12:47:25 PM 51.9181 -3.9383 108° East 496 571 43,500 -2,500 Descending FlightAware UK
Fri 12:47:43 PM 51.9045 -3.8720 108° East 498 573 43,500 4,091 Level FlightAware UK
Fri 12:47:47 PM 51.9030 -3.8660 108° East 521 600 45,000  Climbing FlightAware ADS-B
Fri 12:48:19 PM 51.8774 -3.7395 108° East 500 575 43,500  Descending FlightAware UK
Fri 12:48:32 PM 51.8690 -3.6980 108° East 518 596 45,000 3,000 Climbing FlightAware ADS-B
Fri 12:48:49 PM 51.8550 -3.6314 109° East 516 594 45,000 -2,571 Level FlightAware ADS-B
Fri 12:49:07 PM 51.8407 -3.5632 109° East 498 573 43,500  Descending FlightAware UK
Fri 12:49:29 PM 51.8242 -3.4836 109° East 514 592 45,000 1,731 Climbing FlightAware ADS-B
Fri 12:49:59 PM 51.8017 -3.3761 109° East 506 582 45,000 -1,800 Level FlightAware ADS-B
Fri 12:50:19 PM 51.7866 -3.3038 109° East 498 573 43,500  Descending FlightAware UK
Fri 12:50:34 PM 51.7757 -3.2524 109° East 508 585 45,000  Climbing FlightAware ADS-B
Fri 12:50:49 PM 51.7639 -3.1965 109° East 492 566 43,500  Descending FlightAware UK
Fri 12:51:06 PM 51.7516 -3.1383 109° East 512 589 45,000 1,837 Climbing FlightAware ADS-B
Fri 12:51:38 PM 51.7269 -3.0227 109° East 514 592 45,000 -1,837 Level FlightAware ADS-B
Fri 12:51:55 PM 51.7131 -2.9581 109° East 492 566 43,500  Descending FlightAware UK
Fri 12:52:11 PM 51.7008 -2.9009 109° East 510 587 45,000  Climbing FlightAware ADS-B
Fri 12:52:31 PM 51.6853 -2.8290 109° East 492 566 43,500  Descending FlightAware UK
Fri 12:52:42 PM 51.6771 -2.7907 109° East 515 593 45,000 2,195 Climbing FlightAware ADS-B
Fri 12:53:12 PM 51.6535 -2.6816 109° East 520 598 45,000  Level FlightAware ADS-B
Fri 12:53:43 PM 51.6293 -2.5708 109° East 515 593 45,000 -1,837 Level FlightAware ADS-B
Fri 12:54:01 PM 51.6145 -2.5032 109° East 496 571 43,500  Descending FlightAware UK
Fri 12:54:16 PM 51.6033 -2.4522 109° East 515 593 45,000  Climbing FlightAware ADS-B
Fri 12:54:31 PM 51.5906 -2.3946 109° East 498 573 43,500  Descending FlightAware UK
Fri 12:54:46 PM 51.5794 -2.3438 109° East 518 596 45,000  Climbing FlightAware ADS-B
Fri 12:55:01 PM 51.5668 -2.2862 109° East 496 571 43,500  Descending FlightAware UK
Fri 12:55:08 PM 51.5613 -2.2630 109° East 518 596 45,000 5,000 Climbing FlightAware ADS-B
Fri 12:55:19 PM 51.5508 -2.2245 114° Southeast 515 593 45,000 -3,000 Level FlightAware ADS-B
Fri 12:55:38 PM 51.5306 -2.1608 114° Southeast 496 571 43,500  Descending FlightAware UK
Fri 12:55:49 PM 51.5182 -2.1217 114° Southeast 512 589 45,000  Climbing FlightAware ADS-B
Fri 12:56:08 PM 51.4983 -2.0599 114° Southeast 496 571 43,500  Descending FlightAware UK
Fri 12:56:20 PM 51.4851 -2.0190 114° Southeast 510 587 45,000  Climbing FlightAware ADS-B
Fri 12:56:38 PM 51.4659 -1.9593 114° Southeast 494 568 43,500  Descending FlightAware UK
Fri 12:56:52 PM 51.4504 -1.9116 114° Southeast 513 590 45,000  Climbing FlightAware ADS-B
Fri 12:57:14 PM 51.4265 -1.8379 114° Southeast 496 571 43,500  Descending FlightAware UK
Fri 12:57:25 PM 51.4147 -1.8021 114° Southeast 512 589 45,000 2,195 Climbing FlightAware ADS-B
Fri 12:57:55 PM 51.3818 -1.7018 118° Southeast 513 590 45,000  Level FlightAware ADS-B
Fri 12:58:25 PM 51.3483 -1.5996 118° Southeast 517 595 45,000 -1,837 Level FlightAware ADS-B
Fri 12:58:44 PM 51.3272 -1.5355 118° Southeast 494 568 43,500  Descending FlightAware UK
Fri 12:58:55 PM 51.3144 -1.4971 118° Southeast 519 597 45,000 2,143 Climbing FlightAware ADS-B
Fri 12:59:26 PM 51.2799 -1.3932 118° Southeast 525 604 45,000 -1,837 Level FlightAware ADS-B
Fri 12:59:44 PM 51.2592 -1.3307 118° Southeast 498 573 43,500  Descending FlightAware UK
Fri 12:59:56 PM 51.2454 -1.2896 118° Southeast 524 603 45,000 2,093 Climbing FlightAware ADS-B
Fri 01:00:27 PM 51.2114 -1.1881 118° Southeast 514 592 45,000 -1,875 Level FlightAware ADS-B
Fri 01:00:44 PM 51.1914 -1.1289 118° Southeast 490 564 43,500  Descending FlightAware UK
Fri 01:00:58 PM 51.1761 -1.0832 118° Southeast 520 598 45,000 -600 Climbing FlightAware ADS-B
Fri 01:01:14 PM 51.1575 -1.0283 118° Southeast 498 573 43,200 -1,400 Descending FlightAware UK
Fri 01:01:28 PM 51.1419 -0.9819 118° Southeast 523 602 44,300 -2,200 Climbing FlightAware ADS-B
Fri 01:01:44 PM 51.1229 -0.9260 118° Southeast 502 578 42,100 -2,323 Descending FlightAware UK
Fri 01:01:59 PM 51.1064 -0.8771 118° Southeast 523 602 43,100 -2,400 Climbing FlightAware ADS-B
Fri 01:02:14 PM 51.0886 -0.8245 118° Southeast 506 582 40,900 -2,400 Descending FlightAware UK
Fri 01:02:29 PM 51.0721 -0.7762 118° Southeast 518 596 41,900 -2,400 Climbing FlightAware ADS-B
Fri 01:02:44 PM 51.0543 -0.7238 118° Southeast 508 585 39,700 -2,600 Descending FlightAware UK
Fri 01:02:59 PM 51.0382 -0.6769 118° Southeast 510 587 40,600 -2,323 Climbing FlightAware ADS-B
Fri 01:03:15 PM 51.0205 -0.6250 118° Southeast 494 568 38,500 -2,129 Descending FlightAware UK
Fri 01:03:30 PM 51.0039 -0.5769 118° Southeast 516 594 39,500 -2,400 Climbing FlightAware ADS-B
Fri 01:03:45 PM 50.9862 -0.5255 118° Southeast 500 575 37,300 -2,600 Descending FlightAware UK
Fri 01:04:00 PM 50.9693 -0.4763 118° Southeast 521 600 38,200 -2,400 Climbing FlightAware ADS-B
Fri 01:04:15 PM 50.9515 -0.4247 118° Southeast 498 573 36,100 -2,400 Descending FlightAware UK
Fri 01:04:30 PM 50.9342 -0.3748 118° Southeast 519 597 37,000 -400 Climbing FlightAware ADS-B
Fri 01:05:00 PM 50.8997 -0.2751 119° Southeast 509 586 35,800 -4,400 Descending FlightAware ADS-B
Fri 01:05:15 PM 50.8829 -0.2268 119° Southeast 496 571 33,700 -2,323 Descending FlightAware UK
Fri 01:05:31 PM 50.8642 -0.1735 119° Southeast 513 590 34,600 343 Climbing FlightAware ADS-B
Fri 01:05:50 PM 50.8433 -0.1147 119° Southeast 502 578 33,900 -2,471 Descending FlightAware ADS-B
Fri 01:06:05 PM 50.8232 -0.0730 127° Southeast 474 545 33,200 -5,027 Descending FlightAware ADS-B
Fri 01:06:27 PM 50.7888 -0.0187 127° Southeast 498 573 30,800 -2,516 Descending FlightAware UK
Fri 01:06:36 PM 50.7766 0.0000 127° Southeast 450 518 31,900 -2,750 Climbing FlightAware ADS-B
Fri 01:06:51 PM 50.7529 0.0365 127° Southeast 498 573 29,700 -1,800 Descending FlightAware UK
Fri 01:07:06 PM 50.7316 0.0686 127° Southeast 438 504 31,000 -600 Climbing FlightAware ADS-B
Fri 01:07:21 PM 50.7093 0.1026 127° Southeast 492 566 29,400 -938 Descending FlightAware UK
Fri 01:07:38 PM 50.6841 0.1408 127° Southeast 447 514 30,500 -1,667 Climbing FlightAware ADS-B
Fri 01:07:57 PM 50.6559 0.1834 127° Southeast 498 573 28,400 -1,500 Descending FlightAware UK
Fri 01:08:10 PM 50.6370 0.2123 127° Southeast 450 518 29,700 -1,500 Climbing FlightAware ADS-B
Fri 01:08:33 PM 50.6021 0.2653 127° Southeast 502 578 27,500 -1,742 Descending FlightAware UK
Fri 01:08:41 PM 50.5905 0.2828 127° Southeast 450 518 28,800 -1,500 Climbing FlightAware ADS-B
Fri 01:08:57 PM 50.5660 0.3196 127° Southeast 496 571 26,900 -1,161 Descending FlightAware UK
Fri 01:09:12 PM 50.5442 0.3528 127° Southeast 450 518 28,200 783 Climbing FlightAware ADS-B
Fri 01:09:43 PM 50.4977 0.4228 136° Southeast 449 517 27,500 -1,333 Descending FlightAware ADS-B
Fri 01:10:15 PM 50.4508 0.4932 136° Southeast 447 514 26,800 -3,000 Descending FlightAware ADS-B
Fri 01:10:39 PM 50.4131 0.5496 136° Southeast 482 555 24,700 -1,143 Descending FlightAware UK
Fri 01:10:57 PM 50.3930 0.5780 136° Southeast 439 505 26,000 -324 Climbing FlightAware ADS-B
Fri 01:11:16 PM 50.3564 0.6197 136° Southeast 482 555 24,500  Descending FlightAware UK
Fri 01:11:37 PM 50.3270 0.6530 136° Southeast 427 491 26,000  Climbing FlightAware ADS-B
Fri 01:11:52 PM 50.2986 0.6848 136° Southeast 478 550 24,500 -2,727 Descending FlightAware UK
Fri 01:12:10 PM 50.2697 0.7170 145° Southeast 478 550 24,500 3,000 Level FlightAware UK
Fri 01:12:22 PM 50.2580 0.7300 145° Southeast 428 493 26,000 -1,375 Climbing FlightAware ADS-B
Fri 01:12:58 PM 50.1923 0.8030 145° Southeast 472 543 23,400 -1,650 Descending FlightAware UK
Fri 01:13:02 PM 50.1910 0.8040 145° Southeast 430 495 24,900 -2,500 Climbing FlightAware ADS-B
Fri 01:13:22 PM 50.1531 0.8467 145° Southeast 466 536 22,400 -2,400 Descending FlightAware UK
Fri 01:13:37 PM 50.1330 0.8690 145° Southeast 429 494 23,500 -2,333 Climbing FlightAware ADS-B
Fri 01:13:40 PM 50.1242 0.8786 145° Southeast 464 534 21,700 -9,200 Descending FlightAware UK
Fri 01:13:52 PM 50.1045 0.9004 145° Southeast 458 527 21,200 -2,200 Descending FlightAware UK
Fri 01:14:10 PM 50.0761 0.9320 144° Southeast 452 520 20,600 1,000 Descending FlightAware UK
Fri 01:14:22 PM 50.0620 0.9480 144° Southeast 419 482 21,700 -2,400 Climbing FlightAware ADS-B
Fri 01:14:40 PM 50.0294 0.9835 144° Southeast 422 486 19,400 -4,833 Descending FlightAware UK
Fri 01:14:58 PM 50.0025 1.0131 145° Southeast 406 467 18,800 1,556 Descending FlightAware UK
Fri 01:15:07 PM 49.9940 1.0220 145° Southeast 378 435 20,100 -2,250 Climbing FlightAware ADS-B
Fri 01:15:22 PM 49.9682 1.0507 145° Southeast 386 444 17,900 -5,091 Descending FlightAware UK
Fri 01:15:40 PM 49.9428 1.0787 145° Southeast 378 435 17,300 1,400 Descending FlightAware UK
Fri 01:15:52 PM 49.9310 1.0920 145° Southeast 357 411 18,600 -2,000 Climbing FlightAware ADS-B
Fri 01:16:10 PM 49.9019 1.1235 145° Southeast 366 421 16,300 -2,100 Descending FlightAware UK
Fri 01:16:32 PM 49.8770 1.1500 145° Southeast 342 394 17,200 -1,857 Climbing FlightAware ADS-B
Fri 01:16:52 PM 49.8472 1.1833 145° Southeast 348 400 15,000 -1,800 Descending FlightAware UK
Fri 01:17:12 PM 49.8270 1.2050 145° Southeast 336 387 16,000 -1,857 Climbing FlightAware ADS-B
Fri 01:17:34 PM 49.7935 1.2415 145° Southeast 326 375 13,700 -1,867 Descending FlightAware UK
Fri 01:17:57 PM 49.7690 1.2680 145° Southeast 321 369 14,600 -1,857 Climbing FlightAware ADS-B
Fri 01:18:16 PM 49.7416 1.2984 145° Southeast 318 366 12,400 -1,650 Descending FlightAware UK
Fri 01:18:37 PM 49.7220 1.3190 145° Southeast 315 362 13,500 -1,833 Climbing FlightAware ADS-B
Fri 01:18:52 PM 49.6975 1.3460 145° Southeast 314 361 11,300 -1,867 Descending FlightAware UK
Fri 01:19:22 PM 49.6670 1.3790 145° Southeast 302 348 12,100 -257 Climbing FlightAware ADS-B
Fri 01:20:02 PM 49.6220 1.4280 145° Southeast 299 344 11,000 -3,300 Descending FlightAware ADS-B
Fri 01:20:22 PM 49.5940 1.4581 145° Southeast 292 336 8,800 -1,600 Descending FlightAware UK
Fri 01:20:47 PM 49.5700 1.4830 145° Southeast 291 335 9,800 360 Climbing FlightAware ADS-B
Fri 01:21:12 PM 49.5440 1.5110 145° Southeast 291 335 9,100 -3,509 Descending FlightAware ADS-B
Fri 01:21:40 PM 49.5097 1.5543 145° Southeast 278 320 6,700 -1,600 Descending FlightAware UK
Fri 01:21:42 PM 49.5090 1.5490 145° Southeast 282 325 8,300 -1,667 Climbing FlightAware ADS-B
Fri 01:21:58 PM 49.4911 1.5789 145° Southeast 274 315 6,200 -1,680 Descending FlightAware UK
Fri 01:22:07 PM 49.4820 1.5770 145° Southeast 291 335 7,600 -1,500 Climbing FlightAware ADS-B
Fri 01:22:22 PM 49.4659 1.6097 145° Southeast 1 1 5,600 -1,200 Descending FlightAware UK
Fri 01:22:37 PM 49.4570 1.6270 145° Southeast 289 333 7,000 2,800 Climbing FlightAware ADS-B
Fri 01:22:52 PM 49.4540 1.6580 98° East 288 331 7,000  Level FlightAware ADS-B
Fri 01:23:07 PM 49.4530 1.6880 93° East 287 330 7,000  Level FlightAware ADS-B
Fri 01:23:32 PM 49.4510 1.7380 94° East 287 330 7,000  Level FlightAware ADS-B
Fri 01:24:00 PM 49.4490 1.8009 93° East 284 327 7,000  Level FlightAware ADS-B
Fri 01:24:15 PM 49.4480 1.8312 93° East 285 328 7,000  Level FlightAware ADS-B
Fri 01:24:30 PM 49.4469 1.8624 93° East 285 328 7,000  Level FlightAware ADS-B
Fri 01:24:46 PM 49.4457 1.8939 93° East 285 328 7,000  Level FlightAware ADS-B
Fri 01:25:01 PM 49.4447 1.9242 93° East 285 328 7,000  Level FlightAware ADS-B
Fri 01:25:17 PM 49.4436 1.9566 93° East 286 329 7,000  Level FlightAware ADS-B
Fri 01:25:48 PM 49.4413 2.0195 93° East 286 329 7,000  Level FlightAware ADS-B
Fri 01:26:04 PM 49.4401 2.0508 93° East 286 329 7,000  Level FlightAware ADS-B
Fri 01:26:19 PM 49.4390 2.0816 93° East 285 328 7,000  Level FlightAware ADS-B
Fri 01:26:34 PM 49.4379 2.1118 93° East 284 327 7,000  Level FlightAware ADS-B
Fri 01:26:49 PM 49.4367 2.1429 93° East 284 327 7,000  Level FlightAware ADS-B
Fri 01:27:24 PM 49.4341 2.2129 93° East 281 323 7,000  Level FlightAware ADS-B
Fri 01:27:41 PM 49.4329 2.2456 93° East 280 322 7,000  Level FlightAware ADS-B
Fri 01:27:56 PM 49.4317 2.2757 93° East 279 321 7,000  Level FlightAware ADS-B
Fri 01:28:11 PM 49.4306 2.3061 93° East 279 321 7,000  Level FlightAware ADS-B
Fri 01:28:20 PM 49.4299 2.3227 94° East 280 322 7,000  Level FlightAware ADS-B
Fri 01:28:26 PM 49.4288 2.3358 97° East 281 323 7,000  Level FlightAware ADS-B
Fri 01:28:35 PM 49.4266 2.3522 102° East 282 325 7,000  Level FlightAware ADS-B
Fri 01:28:40 PM 49.4246 2.3621 107° East 283 326 7,000  Level FlightAware ADS-B
Fri 01:28:46 PM 49.4216 2.3741 111° Southeast 283 326 7,000  Level FlightAware ADS-B
Fri 01:29:06 PM 49.4102 2.4096 116° Southeast 285 328 7,000  Level FlightAware ADS-B
Fri 01:29:21 PM 49.4009 2.4374 117° Southeast 286 329 7,000 -632 Level FlightAware ADS-B
Fri 01:29:44 PM 49.3873 2.4774 118° Southeast 285 328 6,600 -837 Descending FlightAware ADS-B
Fri 01:30:04 PM 49.3752 2.5133 117° Southeast 269 310 6,400 -686 Descending FlightAware ADS-B
Fri 01:30:19 PM 49.3665 2.5389 117° Southeast 263 303 6,200 -968 Descending FlightAware ADS-B
Fri 01:30:35 PM 49.3582 2.5637 117° Southeast 261 300 5,900 -1,200 Descending FlightAware ADS-B
Fri 01:30:54 PM 49.3474 2.5965 117° Southeast 259 298 5,500 -1,371 Descending FlightAware ADS-B
Fri 01:31:10 PM 49.3388 2.6227 117° Southeast 259 298 5,100 -1,500 Descending FlightAware ADS-B
Fri 01:31:26 PM 49.3306 2.6473 117° Southeast 262 302 4,700 -1,556 Descending FlightAware ADS-B
Fri 01:31:37 PM 49.3240 2.6672 117° Southeast 264 304 4,400 -1,412 Descending FlightAware ADS-B
Fri 01:31:43 PM 49.3210 2.6754 119° Southeast 265 305 4,300 -1,143 Descending FlightAware ADS-B
Fri 01:31:58 PM 49.3113 2.7003 121° Southeast 261 300 4,000 -1,000 Descending FlightAware ADS-B
Fri 01:32:13 PM 49.3020 2.7239 121° Southeast 258 297 3,800 -1,000 Descending FlightAware ADS-B
Fri 01:32:28 PM 49.2928 2.7470 121° Southeast 253 291 3,500 -1,000 Descending FlightAware ADS-B
Fri 01:32:43 PM 49.2837 2.7696 122° Southeast 249 287 3,300 -968 Descending FlightAware ADS-B
Fri 01:32:59 PM 49.2741 2.7926 123° Southeast 246 283 3,000 -563 Descending FlightAware ADS-B
Fri 01:33:15 PM 49.2640 2.8166 123° Southeast 245 282 3,000  Level FlightAware ADS-B
Fri 01:33:32 PM 49.2537 2.8415 122° Southeast 246 283 3,000  Level FlightAware ADS-B
Fri 01:33:47 PM 49.2444 2.8635 123° Southeast 248 285 3,000  Level FlightAware ADS-B
Fri 01:34:02 PM 49.2350 2.8862 122° Southeast 247 284 3,000  Level FlightAware ADS-B
Fri 01:34:18 PM 49.2256 2.9086 123° Southeast 246 283 3,000  Level FlightAware ADS-B
Fri 01:34:33 PM 49.2161 2.9310 123° Southeast 245 282 3,000  Level FlightAware ADS-B
Fri 01:34:48 PM 49.2069 2.9529 123° Southeast 245 282 3,000  Level FlightAware ADS-B
Fri 01:35:04 PM 49.1971 2.9761 123° Southeast 245 282 3,000  Level FlightAware ADS-B
Fri 01:35:19 PM 49.1876 2.9985 123° Southeast 246 283 3,000  Level FlightAware ADS-B
Fri 01:35:35 PM 49.1784 3.0206 123° Southeast 247 284 3,000  Level FlightAware ADS-B
Fri 01:35:50 PM 49.1691 3.0429 123° Southeast 248 285 3,000  Level FlightAware ADS-B
Fri 01:36:05 PM 49.1597 3.0657 122° Southeast 249 287 3,000  Level FlightAware ADS-B
Fri 01:36:13 PM 49.1547 3.0775 123° Southeast 250 288 3,000  Level FlightAware ADS-B
Fri 01:36:17 PM 49.1513 3.0835 131° Southeast 253 291 3,000  Level FlightAware ADS-B
Fri 01:36:22 PM 49.1477 3.0881 140° Southeast 256 295 3,000  Level FlightAware ADS-B
Fri 01:36:25 PM 49.1440 3.0915 149° Southeast 259 298 3,000  Level FlightAware ADS-B
Fri 01:36:30 PM 49.1385 3.0951 157° South 262 302 3,000  Level FlightAware ADS-B
Fri 01:36:34 PM 49.1337 3.0968 167° South 264 304 3,000  Level FlightAware ADS-B
Fri 01:36:39 PM 49.1284 3.0977 174° South 264 304 3,000  Level FlightAware ADS-B
Fri 01:36:47 PM 49.1179 3.0982 178° South 265 305 3,000  Level FlightAware ADS-B
Fri 01:37:02 PM 49.0991 3.0983 180° South 264 304 3,000  Level FlightAware ADS-B
Fri 01:37:10 PM 49.0898 3.0982 180° South 264 304 3,000  Level FlightAware ADS-B
Fri 01:37:13 PM 49.0861 3.0980 182° South 263 303 3,000  Level FlightAware ADS-B
Fri 01:37:17 PM 49.0813 3.0971 187° South 263 303 3,000  Level FlightAware ADS-B
Fri 01:37:21 PM 49.0766 3.0950 196° South 262 302 3,000  Level FlightAware ADS-B
Fri 01:37:26 PM 49.0716 3.0914 206° Southwest 260 299 3,000  Level FlightAware ADS-B
Fri 01:37:30 PM 49.0677 3.0873 214° Southwest 258 297 3,000  Level FlightAware ADS-B
Fri 01:37:33 PM 49.0647 3.0832 222° Southwest 257 296 3,000  Level FlightAware ADS-B
Fri 01:37:39 PM 49.0604 3.0755 229° Southwest 253 291 3,000  Level FlightAware ADS-B
Fri 01:37:56 PM 49.0489 3.0514 234° Southwest 253 291 3,000  Level FlightAware ADS-B
Fri 01:38:10 PM 49.0390 3.0295 235° Southwest 249 287 3,000  Level FlightAware ADS-B
Fri 01:38:26 PM 49.0292 3.0086 234° Southwest 240 276 3,000  Level FlightAware ADS-B
Fri 01:38:41 PM 49.0196 2.9878 235° Southwest 237 273 3,000  Level FlightAware ADS-B
Fri 01:38:56 PM 49.0103 2.9676 235° Southwest 228 262 3,000  Level FlightAware ADS-B
Fri 01:39:10 PM 49.0021 2.9498 235° Southwest 212 244 3,000  Level FlightAware ADS-B
Fri 01:39:15 PM 48.9993 2.9432 237° Southwest 206 237 3,000  Level FlightAware ADS-B
Fri 01:39:19 PM 48.9976 2.9388 240° Southwest 203 234 3,000  Level FlightAware ADS-B
Fri 01:39:25 PM 48.9953 2.9314 245° Southwest 199 229 3,000  Level FlightAware ADS-B
Fri 01:39:30 PM 48.9935 2.9242 249° West 197 227 3,000  Level FlightAware ADS-B
Fri 01:39:34 PM 48.9925 2.9189 254° West 194 223 3,000  Level FlightAware ADS-B
Fri 01:39:40 PM 48.9912 2.9104 257° West 192 221 3,000  Level FlightAware ADS-B
Fri 01:39:45 PM 48.9907 2.9050 262° West 192 221 3,000  Level FlightAware ADS-B
Fri 01:39:58 PM 48.9887 2.8874 260° West 193 222 3,000  Level FlightAware ADS-B
Fri 01:40:07 PM 48.9872 2.8743 260° West 192 221 3,000  Level FlightAware ADS-B
Fri 01:40:17 PM 48.9860 2.8620 262° West 179 206 3,000  Level FlightAware ADS-B
Fri 01:40:28 PM 48.9849 2.8481 263° West 172 198 3,000  Level FlightAware ADS-B
Fri 01:40:39 PM 48.9841 2.8351 265° West 169 194 3,000  Level FlightAware ADS-B
Fri 01:40:49 PM 48.9837 2.8244 267° West 168 193 3,000  Level FlightAware ADS-B
Fri 01:41:04 PM 48.9833 2.8062 268° West 166 191 3,000  Level FlightAware ADS-B
Fri 01:41:20 PM 48.9830 2.7876 269° West 164 189 3,000  Level FlightAware ADS-B
Fri 01:41:32 PM 48.9829 2.7737 269° West 165 190 3,000  Level FlightAware ADS-B
Fri 01:41:45 PM 48.9825 2.7592 268° West 167 192 3,000  Level FlightAware ADS-B
Fri 01:42:03 PM 48.9815 2.7381 266° West 167 192 3,000  Level FlightAware ADS-B
Fri 01:42:29 PM 48.9794 2.7073 264° West 167 192 3,000  Level FlightAware ADS-B
Fri 01:43:09 PM 48.9765 2.6664 264° West 149 171 3,000  Level FlightAware ADS-B
Fri 01:43:25 PM 48.9758 2.6521 266° West 125 144 3,000 -387 Level FlightAware ADS-B
Fri 01:43:40 PM 48.9753 2.6388 267° West 121 139 2,800 -600 Descending FlightAware ADS-B
Fri 01:43:55 PM 48.9748 2.6262 267° West 119 137 2,700 -600 Descending FlightAware ADS-B
Fri 01:44:10 PM 48.9742 2.6138 266° West 118 136 2,500 -750 Descending FlightAware ADS-B
Fri 01:44:19 PM 48.9738 2.6067 265° West 118 136 2,400 -750 Descending FlightAware ADS-B
Fri 01:44:34 PM 48.9731 2.5933 265° West 119 137 2,200 -800 Descending FlightAware ADS-B
Fri 01:44:49 PM 48.9724 2.5807 265° West 120 138 2,000 -783 Descending FlightAware ADS-B
Fri 01:44:57 PM 48.9721 2.5748 266° West 120 138 1,900 -429 Descending FlightAware ADS-B
Fri 01:45:03 PM 48.9718 2.5692 265° West 121 139 1,900 -632 Level FlightAware ADS-B
Fri 01:45:16 PM 48.9712 2.5587 265° West 121 139 1,700 -857 Descending FlightAware ADS-B
Fri 01:45:24 PM 48.9709 2.5518 266° West 120 138 1,600 -545 Descending FlightAware ADS-B
Fri 01:45:38 PM 48.9702 2.5392 265° West 120 138 1,500 -621 Descending FlightAware ADS-B
Fri 01:45:53 PM 48.9696 2.5270 266° West 119 137 1,300 -692 Descending FlightAware ADS-B
Fri 01:46:04 PM 48.9690 2.5178 264° West 120 138 1,200 -600 Descending FlightAware ADS-B
Fri 01:46:13 PM 48.9685 2.5099 264° West 119 137 1,100 -750 Descending FlightAware ADS-B
Fri 01:46:20 PM 48.9683 2.5050 267° West 118 136 1,000 -632 Descending FlightAware ADS-B
Fri 01:46:32 PM 48.9677 2.4942 265° West 118 136 900 -480 Descending FlightAware ADS-B
Fri 01:46:45 PM 48.9672 2.4843 266° West 116 133 800 -621 Descending FlightAware ADS-B
Fri 01:47:01 PM 48.9665 2.4711 265° West 116 133 600 -632 Descending FlightAware ADS-B
Fri 01:47:42 PM 48.9650 2.4420 266° West 115 132 200 -585 Descending FlightAware ADS-B

Login

Don't have an account? Register now (free) for customized features, flight alerts, and more!